createdAt,value
2018-04-24T13:52:08.810Z,103872.00
2018-04-24T13:53:08.980Z,105312.00
2018-04-24T13:54:08.747Z,104064.00
2018-04-24T13:55:08.848Z,98944.00
2018-04-24T13:56:08.762Z,91872.00
2018-04-24T13:57:08.789Z,94432.00
2018-04-24T13:58:08.782Z,97024.00
2018-04-24T13:59:08.783Z,99840.00
2018-04-24T14:00:08.770Z,104576.00
2018-04-24T14:01:08.786Z,102912.00
2018-04-24T14:02:08.790Z,98944.00
2018-04-24T14:03:08.955Z,101472.00
2018-04-24T14:04:08.810Z,105888.00
2018-04-24T14:05:08.823Z,105216.00
2018-04-24T14:06:08.830Z,103904.00
2018-04-24T14:07:08.846Z,104128.00
2018-04-24T14:08:08.862Z,104096.00
2018-04-24T14:09:08.855Z,99904.00
2018-04-24T14:10:08.963Z,99872.00
2018-04-24T14:11:08.874Z,101120.00
2018-04-24T14:12:09.005Z,100128.00
2018-04-24T14:13:09.143Z,89376.00
2018-04-24T14:14:08.943Z,97120.00
2018-04-24T14:15:08.939Z,94816.00
2018-04-24T14:16:08.948Z,97408.00
2018-04-24T14:17:09.251Z,99904.00
2018-04-24T14:18:08.948Z,100096.00
2018-04-24T14:19:08.958Z,100512.00
2018-04-24T14:20:08.964Z,94144.00
2018-04-24T14:21:09.003Z,87200.00
2018-04-24T14:22:09.207Z,91552.00
2018-04-24T14:23:09.012Z,93152.00
2018-04-24T14:24:09.039Z,95648.00
2018-04-24T14:25:09.012Z,99072.00
2018-04-24T14:26:09.052Z,98528.00
2018-04-24T14:27:09.035Z,101088.00
2018-04-24T14:28:09.072Z,103520.00
2018-04-24T14:29:09.053Z,102592.00
2018-04-24T14:30:09.266Z,101824.00
2018-04-24T14:31:09.078Z,101312.00
2018-04-24T14:32:09.088Z,94144.00
2018-04-24T14:33:09.101Z,101536.00
2018-04-24T14:34:09.103Z,101184.00
2018-04-24T14:35:09.118Z,93152.00
2018-04-24T14:36:09.194Z,86560.00
2018-04-24T14:37:09.223Z,81504.00
2018-04-24T14:38:09.278Z,87040.00
2018-04-24T14:39:09.214Z,90336.00
2018-04-24T14:40:09.189Z,101504.00
2018-04-24T14:41:09.198Z,98336.00
2018-04-24T14:42:09.376Z,94080.00
2018-04-24T14:43:09.201Z,98624.00
2018-04-24T14:44:09.209Z,105600.00
2018-04-24T14:45:09.217Z,106720.00
2018-04-24T14:46:09.225Z,101888.00
2018-04-24T14:47:09.239Z,99584.00
2018-04-24T14:48:09.257Z,100256.00
2018-04-24T14:49:09.264Z,99808.00
2018-04-24T14:50:09.294Z,91936.00
2018-04-24T14:51:09.281Z,99104.00
2018-04-24T14:52:09.322Z,106144.00
2018-04-24T14:53:09.310Z,105792.00
2018-04-24T14:54:09.308Z,101472.00
2018-04-24T14:55:09.385Z,100672.00
2018-04-24T14:56:09.340Z,98880.00
2018-04-24T14:57:10.696Z,96192.00
2018-04-24T14:58:11.426Z,90144.00
2018-04-24T14:59:09.371Z,95200.00
2018-04-24T15:00:09.377Z,97248.00
2018-04-24T15:01:09.478Z,98656.00
2018-04-24T15:02:09.512Z,98112.00
2018-04-24T15:03:09.430Z,98272.00
2018-04-24T15:04:09.425Z,97376.00
2018-04-24T15:05:09.436Z,98528.00
2018-04-24T15:06:09.445Z,98272.00
2018-04-24T15:07:09.543Z,99360.00
2018-04-24T15:08:09.657Z,98912.00
2018-04-24T15:09:09.478Z,97120.00
2018-04-24T15:10:09.484Z,97440.00
2018-04-24T15:11:09.498Z,90880.00
2018-04-24T15:12:09.509Z,85824.00
2018-04-24T15:13:09.539Z,79616.00
2018-04-24T15:14:09.533Z,75552.00
2018-04-24T15:15:09.556Z,75904.00
2018-04-24T15:16:09.553Z,76480.00
2018-04-24T15:17:09.700Z,76064.00
2018-04-24T15:18:09.846Z,80064.00
2018-04-24T15:19:09.645Z,85312.00
2018-04-24T15:20:09.605Z,89248.00
2018-04-24T15:21:09.625Z,90464.00
2018-04-24T15:22:09.641Z,90816.00
2018-04-24T15:23:09.651Z,91904.00
2018-04-24T15:24:09.645Z,94432.00
2018-04-24T15:25:09.649Z,96288.00
2018-04-24T15:26:09.693Z,97056.00
2018-04-24T15:27:09.700Z,99648.00
2018-04-24T15:28:09.771Z,66048.00
2018-04-24T15:29:09.775Z,89792.00
2018-04-24T15:30:09.697Z,40000.00
2018-04-24T15:31:09.738Z,70368.00
2018-04-24T15:32:09.728Z,89568.00
2018-04-24T15:33:09.759Z,92352.00
2018-04-24T15:34:09.738Z,93376.00
2018-04-24T15:35:09.754Z,93696.00
2018-04-24T15:36:09.827Z,94912.00
2018-04-24T15:37:09.787Z,91360.00
2018-04-24T15:38:09.802Z,88192.00
2018-04-24T15:39:09.788Z,91680.00
2018-04-24T15:40:09.798Z,89248.00
2018-04-24T15:41:09.816Z,89760.00
2018-04-24T15:42:09.812Z,90848.00
2018-04-24T15:43:09.824Z,88192.00
2018-04-24T15:44:09.829Z,87072.00
2018-04-24T15:45:09.876Z,85440.00
2018-04-24T15:46:09.850Z,86592.00
2018-04-24T15:47:09.860Z,80896.00
2018-04-24T15:48:09.892Z,85664.00
2018-04-24T15:49:09.914Z,81440.00
2018-04-24T15:50:09.907Z,82752.00
2018-04-24T15:51:09.901Z,76000.00
2018-04-24T15:52:09.923Z,74816.00
2018-04-24T15:53:09.917Z,71328.00
2018-04-24T15:54:09.926Z,72928.00
2018-04-24T15:55:09.937Z,69216.00
2018-04-24T15:56:09.985Z,60064.00
2018-04-24T15:57:09.955Z,63904.00
2018-04-24T15:58:09.982Z,61184.00
2018-04-24T15:59:09.973Z,58816.00
2018-04-24T16:00:09.986Z,64576.00
2018-04-24T16:01:10.081Z,67712.00
2018-04-24T16:02:10.019Z,69216.00
2018-04-24T16:03:10.059Z,71808.00
2018-04-24T16:04:10.062Z,80384.00
2018-04-24T16:05:10.036Z,85344.00
2018-04-24T16:06:10.167Z,86816.00
2018-04-24T16:07:10.149Z,84864.00
2018-04-24T16:08:10.077Z,83904.00
2018-04-24T16:09:10.108Z,82560.00
2018-04-24T16:10:10.100Z,84736.00
2018-04-24T16:11:10.083Z,84224.00
2018-04-24T16:12:10.095Z,82560.00
2018-04-24T16:13:10.122Z,81888.00
2018-04-24T16:14:10.138Z,79552.00
2018-04-24T16:15:10.125Z,76832.00
2018-04-24T16:16:10.141Z,66016.00
2018-04-24T16:17:10.142Z,59648.00
2018-04-24T16:18:10.175Z,51936.00
2018-04-24T16:19:10.212Z,49280.00
2018-04-24T16:20:10.163Z,51008.00
2018-04-24T16:21:10.173Z,52096.00
2018-04-24T16:22:10.184Z,56000.00
2018-04-24T16:23:10.201Z,67008.00
2018-04-24T16:24:10.275Z,56736.00
2018-04-24T16:25:10.210Z,56384.00
2018-04-24T16:26:10.221Z,53312.00
2018-04-24T16:27:10.263Z,60160.00
2018-04-24T16:28:10.263Z,65280.00
2018-04-24T16:29:10.241Z,65824.00
2018-04-24T16:30:10.329Z,69184.00
2018-04-24T16:31:10.258Z,70528.00
2018-04-24T16:32:10.274Z,69856.00
2018-04-24T16:33:10.279Z,64128.00
2018-04-24T16:34:10.278Z,58720.00
2018-04-24T16:35:10.374Z,57984.00
2018-04-24T16:36:10.297Z,65888.00
2018-04-24T16:37:10.304Z,64320.00
2018-04-24T16:38:10.340Z,70304.00
2018-04-24T16:39:10.321Z,68832.00
2018-04-24T16:40:10.330Z,71200.00
2018-04-24T16:41:10.498Z,72864.00
2018-04-24T16:42:10.349Z,66176.00
2018-04-24T16:43:10.373Z,57504.00
2018-04-24T16:44:10.374Z,53696.00
2018-04-24T16:45:10.370Z,55456.00
2018-04-24T16:46:10.435Z,63424.00
2018-04-24T16:47:10.382Z,63936.00
2018-04-24T16:48:10.426Z,65216.00
2018-04-24T16:49:10.398Z,63520.00
2018-04-24T16:50:10.432Z,63328.00
2018-04-24T16:51:10.422Z,62176.00
2018-04-24T16:52:10.437Z,57344.00
2018-04-24T16:53:10.436Z,60672.00
2018-04-24T16:54:10.437Z,60160.00
2018-04-24T16:55:10.445Z,59648.00
2018-04-24T16:56:10.538Z,59776.00
2018-04-24T16:57:10.465Z,58816.00
2018-04-24T16:58:10.495Z,56704.00
2018-04-24T16:59:10.711Z,55392.00
2018-04-24T17:00:10.596Z,56256.00
2018-04-24T17:01:10.497Z,57568.00
2018-04-24T17:02:10.704Z,55904.00
2018-04-24T17:03:10.552Z,52576.00
2018-04-24T17:04:10.794Z,49984.00
2018-04-24T17:05:10.778Z,46080.00
2018-04-24T17:06:10.552Z,43840.00
2018-04-24T17:07:10.544Z,42208.00
2018-04-24T17:08:11.071Z,38432.00
2018-04-24T17:09:10.620Z,39936.00
2018-04-24T17:10:10.649Z,44320.00
2018-04-24T17:11:10.571Z,46592.00
2018-04-24T17:12:10.660Z,46144.00
2018-04-24T17:13:10.615Z,43008.00
2018-04-24T17:14:10.606Z,39456.00
2018-04-24T17:15:10.754Z,35136.00
2018-04-24T17:16:10.609Z,37120.00
2018-04-24T17:17:10.616Z,35744.00
2018-04-24T17:18:10.628Z,35328.00
2018-04-24T17:20:34.807Z,32736.00
2018-04-24T17:21:34.912Z,35424.00
2018-04-24T17:23:29.518Z,35168.00
2018-04-24T17:24:29.203Z,30432.00
2018-04-24T17:25:29.216Z,27232.00
2018-04-24T17:26:29.260Z,24480.00
2018-04-24T17:27:29.513Z,22400.00
2018-04-24T17:28:29.260Z,22368.00
2018-04-24T17:29:29.183Z,19744.00
2018-04-24T17:30:29.210Z,17376.00
2018-04-24T17:31:29.439Z,16640.00
2018-04-24T17:32:29.328Z,15840.00
2018-04-24T17:33:29.214Z,14016.00
2018-04-24T17:34:30.294Z,12036.00
2018-04-24T17:35:29.388Z,10724.00
2018-04-24T17:36:29.234Z,10156.00
2018-04-24T17:37:29.243Z,10212.00
2018-04-24T17:38:29.426Z,9948.00
2018-04-24T17:39:29.240Z,9244.00
2018-04-24T17:40:29.274Z,8876.00
2018-04-24T17:41:29.247Z,8540.00
2018-04-24T17:42:29.309Z,7564.00
2018-04-24T17:43:29.275Z,6412.00
2018-04-24T17:44:29.279Z,5820.00
2018-04-24T17:45:29.306Z,5488.00
2018-04-24T17:46:29.261Z,5016.00
2018-04-24T17:47:29.293Z,4472.00
2018-04-24T17:48:29.310Z,4076.00
2018-04-24T17:50:52.547Z,3492.00
2018-04-24T17:51:52.479Z,3300.00
2018-04-24T17:52:52.391Z,3128.00
2018-04-24T17:53:52.440Z,2972.00
2018-04-24T17:54:52.419Z,2832.00
2018-04-24T17:55:52.388Z,2708.00
2018-04-24T17:56:52.417Z,2592.00
2018-04-24T17:59:16.377Z,2292.00
2018-04-24T18:01:39.516Z,1936.00
2018-04-24T18:02:39.526Z,1800.00
2018-04-24T18:03:39.483Z,1672.00
2018-04-24T18:04:39.521Z,1560.00
2018-04-24T18:05:39.484Z,1444.00
2018-04-24T18:06:39.634Z,1340.00
2018-04-24T18:07:39.545Z,1244.00
2018-04-24T18:08:39.589Z,1148.00
2018-04-24T18:09:39.494Z,1060.00
2018-04-24T18:10:39.495Z,972.00
2018-04-24T18:11:39.498Z,900.00
2018-04-24T18:12:39.476Z,824.00
2018-04-24T18:13:40.484Z,752.00
2018-04-24T18:14:39.476Z,688.00
2018-04-24T18:15:39.484Z,628.00
2018-04-24T18:16:40.516Z,572.00
2018-04-24T18:17:39.513Z,520.00
2018-04-24T18:18:39.459Z,476.00
2018-04-24T18:19:39.473Z,432.00
2018-04-24T18:20:39.489Z,396.00
2018-04-24T18:21:39.584Z,364.00
2018-04-24T18:22:39.496Z,328.00
2018-04-24T18:23:39.530Z,300.00
2018-04-24T18:24:39.457Z,276.00
2018-04-24T18:25:39.504Z,252.00
2018-04-24T18:26:40.489Z,232.00
2018-04-24T18:27:39.474Z,208.00
2018-04-24T18:28:39.468Z,192.00
2018-04-24T18:29:39.450Z,172.00
2018-04-24T18:30:39.450Z,156.00
2018-04-24T18:31:39.593Z,136.00
2018-04-24T18:32:39.450Z,124.00
2018-04-24T18:33:39.480Z,112.00
2018-04-24T18:34:39.548Z,100.00
2018-04-24T18:35:39.512Z,88.00
2018-04-24T18:36:39.463Z,76.00
2018-04-24T18:37:39.461Z,64.00
2018-04-24T18:38:40.528Z,56.00
2018-04-24T18:39:39.466Z,48.00
2018-04-24T18:40:39.496Z,40.00
2018-04-24T18:41:39.446Z,36.00
2018-04-24T18:42:39.529Z,28.00
2018-04-24T18:43:39.572Z,28.00
2018-04-24T18:44:39.443Z,24.00
2018-04-24T18:45:39.474Z,16.00
2018-04-24T18:46:39.496Z,16.00
2018-04-24T18:47:39.516Z,12.00
2018-04-24T18:48:39.467Z,12.00
2018-04-24T18:49:39.505Z,8.00
2018-04-24T18:50:39.490Z,4.00
2018-04-24T18:51:39.484Z,4.00
2018-04-24T18:52:39.501Z,8.00
2018-04-24T18:53:39.447Z,4.00
2018-04-24T18:54:39.443Z,4.00
2018-04-24T18:55:39.566Z,4.00
2018-04-24T18:56:39.576Z,0.00
2018-04-24T18:57:48.707Z,0.00
2018-04-24T18:58:39.892Z,4.00
2018-04-24T18:59:40.416Z,4.00
2018-04-24T19:00:39.889Z,0.00
2018-04-24T19:01:39.448Z,0.00
2018-04-24T19:02:40.792Z,0.00
2018-04-24T19:03:39.582Z,0.00
2018-04-24T19:04:39.562Z,0.00
2018-04-24T19:05:50.207Z,0.00
2018-04-24T19:07:34.294Z,0.00
2018-04-24T19:08:34.295Z,0.00
2018-04-24T19:09:33.223Z,0.00
2018-04-24T19:10:33.184Z,0.00
2018-04-24T19:12:56.441Z,0.00
2018-04-24T19:13:56.384Z,0.00
2018-04-24T19:16:19.190Z,0.00
2018-04-24T19:17:19.324Z,0.00
2018-04-24T19:18:19.387Z,0.00
2018-04-24T19:19:19.242Z,0.00
2018-04-24T19:20:19.318Z,0.00
2018-04-24T19:21:19.180Z,0.00
2018-04-24T19:22:18.927Z,0.00
2018-04-24T19:23:18.950Z,0.00
2018-04-24T19:24:18.926Z,0.00
2018-04-24T19:25:18.997Z,0.00
2018-04-24T19:26:18.961Z,0.00
2018-04-24T19:27:18.921Z,0.00
2018-04-24T19:28:19.136Z,0.00
2018-04-24T19:29:18.921Z,0.00
2018-04-24T19:30:18.988Z,0.00
2018-04-24T19:31:18.964Z,0.00
2018-04-24T19:32:18.944Z,0.00
2018-04-24T19:33:18.943Z,0.00
2018-04-24T19:34:19.017Z,0.00
2018-04-24T19:35:18.917Z,0.00
2018-04-24T19:36:18.963Z,0.00
2018-04-24T19:37:18.929Z,0.00
2018-04-24T19:38:18.934Z,0.00
2018-04-24T19:39:18.929Z,0.00
2018-04-24T19:40:18.933Z,0.00
2018-04-24T19:41:19.008Z,0.00
2018-04-24T19:42:18.923Z,0.00
2018-04-24T19:44:52.338Z,0.00
2018-04-24T19:47:05.558Z,0.00
2018-04-24T19:48:05.505Z,0.00
2018-04-24T19:50:42.928Z,0.00
2018-04-24T19:53:07.075Z,0.00
2018-04-24T19:53:51.962Z,0.00
2018-04-24T19:54:51.773Z,0.00
2018-04-24T19:57:15.865Z,0.00
2018-04-24T19:59:37.914Z,0.00
2018-04-24T20:00:37.767Z,0.00
2018-04-24T20:01:37.532Z,0.00
2018-04-24T20:04:00.950Z,0.00
2018-04-24T20:06:24.703Z,0.00
2018-04-24T20:07:24.917Z,0.00
2018-04-24T20:08:25.570Z,0.00
2018-04-24T20:09:33.743Z,0.00
2018-04-24T20:11:19.330Z,0.00
2018-04-24T20:12:19.145Z,0.00
2018-04-24T20:13:19.416Z,0.00
2018-04-24T20:14:19.473Z,0.00
2018-04-24T20:15:18.989Z,0.00
2018-04-24T20:16:18.985Z,0.00
2018-04-24T20:17:18.985Z,0.00
2018-04-24T20:18:19.086Z,0.00
2018-04-24T20:20:42.499Z,0.00
2018-04-24T20:21:42.100Z,0.00
2018-04-24T20:24:07.574Z,0.00
2018-04-24T20:25:06.797Z,0.00
2018-04-24T20:26:06.805Z,0.00
2018-04-24T20:27:06.969Z,0.00
2018-04-24T20:29:40.359Z,0.00
2018-04-24T20:31:54.874Z,0.00
2018-04-24T20:33:05.723Z,0.00
2018-04-24T20:34:58.726Z,0.00
2018-04-24T20:35:48.385Z,0.00
2018-04-24T20:36:48.504Z,0.00
2018-04-24T20:39:11.435Z,0.00
2018-04-24T20:40:11.408Z,0.00
2018-04-24T20:42:44.871Z,0.00
2018-04-24T20:44:57.858Z,0.00
2018-04-24T20:47:20.555Z,0.00
2018-04-24T20:48:20.650Z,0.00
2018-04-24T20:50:53.171Z,0.00
2018-04-24T20:51:43.753Z,0.00
2018-04-24T20:54:06.963Z,0.00
2018-04-24T20:55:06.892Z,0.00
2018-04-24T20:56:06.973Z,0.00
2018-04-24T20:58:39.778Z,0.00
2018-04-24T20:59:29.780Z,0.00
2018-04-24T21:02:02.814Z,0.00
2018-04-24T21:02:52.048Z,0.00
2018-04-24T21:03:51.723Z,0.00
2018-04-24T21:04:51.754Z,0.00
2018-04-24T21:05:52.123Z,0.00
2018-04-24T21:06:51.769Z,0.00
2018-04-24T21:07:51.687Z,0.00
2018-04-24T21:08:51.674Z,0.00
2018-04-24T21:09:51.611Z,0.00
2018-04-24T21:10:51.635Z,0.00
2018-04-24T21:11:51.605Z,0.00
2018-04-24T21:12:51.610Z,0.00
2018-04-24T21:13:51.623Z,0.00
2018-04-24T21:16:14.842Z,0.00
2018-04-24T21:17:22.578Z,0.00
2018-04-24T21:18:15.113Z,0.00
2018-04-24T21:20:47.234Z,0.00
2018-04-24T21:21:36.983Z,0.00
2018-04-24T21:24:00.088Z,0.00
2018-04-24T21:26:34.049Z,0.00
2018-04-24T21:27:23.936Z,0.00
2018-04-24T21:28:24.152Z,0.00
2018-04-24T21:30:46.935Z,0.00
2018-04-24T21:31:46.881Z,0.00
2018-04-24T21:34:09.989Z,0.00
2018-04-24T21:36:41.242Z,0.00
2018-04-24T21:38:56.600Z,0.00
2018-04-24T21:41:19.262Z,0.00
2018-04-24T21:42:19.273Z,0.00
2018-04-24T21:44:52.696Z,0.00
2018-04-24T21:47:15.414Z,0.00
2018-04-24T21:49:38.972Z,0.00
2018-04-24T21:50:28.755Z,0.00
2018-04-24T21:52:51.568Z,0.00
2018-04-24T21:53:51.553Z,0.00
2018-04-24T21:54:51.454Z,0.00
2018-04-24T21:55:51.544Z,0.00
2018-04-24T21:57:01.162Z,0.00
2018-04-24T21:58:56.397Z,0.00
2018-04-24T21:59:45.956Z,0.00
2018-04-24T22:00:46.268Z,0.00
2018-04-24T22:03:19.937Z,0.00
2018-04-24T22:04:08.874Z,0.00
2018-04-24T22:06:32.170Z,0.00
2018-04-24T22:07:31.966Z,0.00
2018-04-24T22:08:32.081Z,0.00
2018-04-24T22:11:05.277Z,0.00
2018-04-24T22:13:18.194Z,0.00
2018-04-24T22:14:18.450Z,0.00
2018-04-24T22:16:42.364Z,0.00
2018-04-24T22:17:42.511Z,0.00
2018-04-24T22:18:42.322Z,0.00
2018-04-24T22:19:42.449Z,0.00
2018-04-24T22:22:04.624Z,0.00
2018-04-24T22:24:27.605Z,0.00
2018-04-24T22:26:50.378Z,0.00
2018-04-24T22:29:23.708Z,0.00
2018-04-24T22:30:13.463Z,0.00
2018-04-24T22:31:13.259Z,0.00
2018-04-24T22:32:13.184Z,0.00
2018-04-24T22:33:13.391Z,0.00
2018-04-24T22:35:46.400Z,0.00
2018-04-24T22:37:59.566Z,0.00
2018-04-24T22:40:33.786Z,0.00
2018-04-24T22:41:22.788Z,0.00
2018-04-24T22:43:57.141Z,0.00
2018-04-24T22:44:46.461Z,0.00
2018-04-24T22:47:09.553Z,0.00
2018-04-24T22:49:43.452Z,0.00
2018-04-24T22:50:32.652Z,0.00
2018-04-24T22:52:57.560Z,0.00
2018-04-24T22:55:19.991Z,0.00
2018-04-24T22:56:19.700Z,0.00
2018-04-24T22:57:20.598Z,0.00
2018-04-24T22:58:20.044Z,0.00
2018-04-24T23:00:41.622Z,0.00
2018-04-24T23:03:04.201Z,0.00
2018-04-24T23:04:03.788Z,0.00
2018-04-24T23:06:38.291Z,0.00
2018-04-24T23:07:26.807Z,0.00
2018-04-24T23:09:50.282Z,0.00
2018-04-24T23:12:12.978Z,0.00
2018-04-24T23:13:13.001Z,0.00
2018-04-24T23:15:46.339Z,0.00
2018-04-24T23:16:36.253Z,0.00
2018-04-24T23:18:59.203Z,0.00
2018-04-24T23:21:31.047Z,0.00
2018-04-24T23:22:22.325Z,0.00
2018-04-24T23:23:30.920Z,0.00
2018-04-24T23:25:17.627Z,0.00
2018-04-24T23:26:16.595Z,0.00
2018-04-24T23:28:39.643Z,0.00
2018-04-24T23:29:39.488Z,0.00
2018-04-24T23:30:39.487Z,0.00
2018-04-24T23:31:39.571Z,0.00
2018-04-24T23:34:02.920Z,0.00
2018-04-24T23:35:02.852Z,0.00
2018-04-24T23:37:35.722Z,0.00
2018-04-24T23:38:26.514Z,0.00
2018-04-24T23:40:47.711Z,0.00
2018-04-24T23:41:47.538Z,0.00
2018-04-24T23:44:18.839Z,0.00
2018-04-24T23:45:12.059Z,0.00
2018-04-24T23:47:44.176Z,0.00
2018-04-24T23:48:34.022Z,0.00
2018-04-24T23:50:57.042Z,0.00
2018-04-24T23:53:20.261Z,0.00
2018-04-24T23:54:20.206Z,0.00
2018-04-24T23:55:20.120Z,0.00
2018-04-24T23:57:52.965Z,0.00
2018-04-24T23:58:50.923Z,0.00
2018-04-24T23:59:42.211Z,0.00
